Latest Weather Observations for Cooktown

IDQ60801

Issued at 10:05 am EST Saturday 30 August 2014 (issued every 30 minutes, with the page automatically refreshed every 10 minutes)

About weather observations | Map of weather stations | Latest weather observations for QLD | Other Formats
Station Details ID: 031209 Name: COOKTOWN AIRPORT Lat: -15.45 Lon: 145.19 Height: 4.8 m
Data from the previous 72 hours. | See also: Recent months at Cooktown
Date/Time
EST
Temp
°C
App
Temp
°C
Dew
Point
Rel
Hum
%
Delta-T
°C
Wind Press
QNH
hPa
Press
MSL
hPa
Rain
since 9 am
mm
Dir
 
Spd
km/h
Gust
km/h
Spd
kts
Gust
kts
30/10:00am 23.5 22.0 16.3 64 4.4 SE 19 33 10 18 1017.2 - 0.0
30/09:30am 23.1 21.7 16.5 66 4.0 SE 19 30 10 16 1017.5 - 0.0
30/09:00am 22.5 21.3 17.5 73 3.1 ESE 20 33 11 18 1017.2 1017.3 0.6
30/08:30am 21.8 21.3 17.8 78 2.5 ESE 17 35 9 19 1017.1 - 0.6
30/08:00am 20.6 20.5 17.8 84 1.7 SE 15 28 8 15 1017.0 - 0.6
30/07:30am 20.5 19.7 17.9 85 1.6 ESE 19 28 10 15 1016.5 - 0.6
30/07:13am 20.3 20.1 18.4 89 1.2 SE 17 28 9 15 1016.3 - 0.6
30/07:12am 20.3 20.0 18.2 88 1.3 SE 17 28 9 15 1016.3 - 0.6
30/07:00am 19.7 20.6 18.4 92 0.8 SE 11 20 6 11 1016.3 - 0.6
30/06:38am 19.8 21.1 18.5 92 0.8 ESE 9 15 5 8 1016.5 - 0.2
30/06:30am 19.8 21.0 18.3 91 0.9 SE 9 15 5 8 1016.2 - 0.2
30/06:15am 19.9 21.2 18.5 92 0.9 S 9 15 5 8 1016.5 - 0.2
30/06:00am 20.1 20.1 18.0 88 1.3 ESE 15 26 8 14 1016.3 1016.2 0.2
30/05:57am 20.1 20.1 18.0 88 1.3 ESE 15 26 8 14 1016.2 - 0.2
30/05:56am 20.2 20.1 17.9 87 1.4 ESE 15 26 8 14 1016.2 - 0.2
30/05:30am 20.2 20.8 17.8 86 1.5 SE 11 20 6 11 1015.6 - 0.2
30/05:11am 19.8 20.1 18.0 89 1.1 SE 13 20 7 11 1015.4 - 0.2
30/05:00am 19.7 18.7 17.9 89 1.1 SE 20 32 11 17 1015.4 - 0.2
30/04:52am 19.7 16.9 18.1 90 1.0 ESE 30 43 16 23 1015.5 - 0.2
30/04:50am 19.6 16.4 18.1 91 0.9 ESE 32 43 17 23 1015.5 - 0.2
30/04:42am 20.1 18.4 18.2 89 1.2 E 24 35 13 19 1015.5 - 0.2
30/04:30am 20.0 16.8 18.2 89 1.1 E 32 43 17 23 1015.3 - 0.2
30/04:01am 20.1 19.4 18.2 89 1.2 SE 19 30 10 16 1015.2 - 0.2
30/04:00am 20.1 19.4 18.2 89 1.2 ESE 19 30 10 16 1015.2 - 0.2
30/03:58am 20.1 19.2 18.3 89 1.1 ESE 20 30 11 16 1015.2 - 0.2
30/03:30am 20.5 19.9 18.9 90 1.0 ESE 20 35 11 19 1015.4 - 0.0
30/03:19am 20.8 19.1 18.9 89 1.2 ESE 26 35 14 19 1015.3 - 0.0
30/03:18am 20.8 18.7 18.9 89 1.2 E 28 35 15 19 1015.3 - 0.0
30/03:00am 21.8 21.3 17.8 78 2.5 SE 17 24 9 13 1015.2 1015.1 0.0
30/02:30am 21.8 21.7 17.8 78 2.5 SE 15 24 8 13 1015.5 - 0.0
30/02:00am 21.7 21.6 17.8 78 2.4 SE 15 28 8 15 1015.7 - 0.0
30/01:30am 21.7 21.5 17.7 78 2.5 SE 15 26 8 14 1015.8 - 0.0
30/01:00am 21.7 20.8 17.7 78 2.5 SE 19 28 10 15 1015.9 - 0.0
30/12:31am 21.7 21.5 17.5 77 2.6 SE 15 28 8 15 1016.0 - 0.0
30/12:30am 21.6 21.3 17.4 77 2.6 SE 15 24 8 13 1016.0 - 0.0
30/12:18am 21.6 20.8 18.1 80 2.2 ESE 19 24 10 13 1016.3 - 0.0
30/12:00am 22.0 20.9 17.3 74 2.9 SE 19 32 10 17 1016.3 1016.3 0.0
 
Date/Time
EST
Temp
°C
App
Temp
°C
Dew
Point
Rel
Hum
%
Delta-T
°C
Wind Press
QNH
hPa
Press
MSL
hPa
Rain
since 9 am
mm
Dir
 
Spd
km/h
Gust
km/h
Spd
kts
Gust
kts
29/11:30pm 21.7 20.6 17.3 76 2.7 SE 19 30 10 16 1016.5 - 0.0
29/11:00pm 21.8 21.0 17.2 75 2.8 SE 17 30 9 16 1016.7 - 0.0
29/10:30pm 22.2 21.0 17.0 72 3.2 SE 19 33 10 18 1016.9 - 0.0
29/10:00pm 21.8 21.2 17.6 77 2.6 SE 17 26 9 14 1017.0 - 0.0
29/09:30pm 21.9 21.3 17.5 76 2.7 SE 17 26 9 14 1016.9 - 0.0
29/09:00pm 21.9 20.8 17.3 75 2.8 SE 19 32 10 17 1016.8 1016.8 0.0
29/08:30pm 22.0 21.2 17.1 74 3.0 SE 17 28 9 15 1016.5 - 0.0
29/08:00pm 22.0 20.9 16.4 70 3.4 SE 17 30 9 16 1016.2 - 0.0
29/07:30pm 21.8 20.8 16.5 72 3.2 SE 17 33 9 18 1016.0 - 0.0
29/07:00pm 21.9 21.4 16.8 73 3.1 SE 15 26 8 14 1015.8 - 0.0
29/06:30pm 22.2 21.4 17.0 72 3.2 SE 17 30 9 16 1015.6 - 0.0
29/06:00pm 22.5 21.2 16.9 70 3.4 SE 19 33 10 18 1015.4 1015.4 0.0
29/05:30pm 23.1 21.6 16.7 67 3.9 SE 20 32 11 17 1015.2 - 0.0
29/05:00pm 23.7 21.8 16.7 65 4.3 SE 22 35 12 19 1014.9 - 0.0
29/04:30pm 23.9 20.7 16.4 63 4.6 ESE 28 43 15 23 1015.1 - 0.0
29/04:02pm 23.9 20.4 15.6 59 5.0 ESE 28 46 15 25 1015.0 - 0.0
29/04:00pm 24.5 21.0 15.6 57 5.4 ESE 28 43 15 23 1015.1 - 0.0
29/03:33pm 24.6 20.6 15.3 56 5.6 ESE 30 54 16 29 1015.0 - 0.0
29/03:30pm 24.6 21.0 15.3 56 5.6 SE 28 43 15 23 1015.0 - 0.0
29/03:20pm 23.7 20.2 15.6 60 4.9 ESE 28 50 15 27 1015.1 - 0.0
29/03:00pm 24.5 21.9 15.9 58 5.2 SE 24 41 13 22 1015.2 1015.2 0.0
29/02:30pm 24.8 23.1 16.3 59 5.2 SE 20 37 11 20 1015.4 - 0.0
29/02:00pm 24.7 22.1 15.8 57 5.4 SE 24 41 13 22 1015.5 - 0.0
29/01:30pm 24.7 22.1 15.8 57 5.4 ESE 24 41 13 22 1015.8 - 0.0
29/01:06pm 25.2 21.7 15.4 54 5.9 ESE 28 46 15 25 1016.1 - 0.0
29/01:00pm 24.8 22.1 15.7 57 5.5 SE 24 37 13 20 1016.2 - 0.0
29/12:30pm 24.3 21.1 15.3 57 5.4 SE 26 39 14 21 1016.5 - 0.0
29/12:00pm 25.5 22.1 15.8 55 5.9 ESE 28 46 15 25 1016.7 1016.8 0.0
29/11:37am 24.5 20.9 15.3 56 5.5 SE 28 46 15 25 1016.9 - 0.0
29/11:30am 24.8 22.5 15.7 57 5.5 ESE 22 35 12 19 1017.0 - 0.0
29/11:00am 24.7 20.8 15.4 56 5.6 ESE 30 50 16 27 1017.4 - 0.0
29/10:53am 24.1 20.4 15.1 57 5.4 ESE 28 50 15 27 1017.5 - 0.0
29/10:30am 23.8 21.3 15.1 58 5.2 SE 22 39 12 21 1017.6 - 0.0
29/10:00am 24.0 20.8 15.3 58 5.2 SE 26 39 14 21 1017.4 - 0.0
29/09:30am 23.7 20.8 15.2 59 5.1 SE 24 44 13 24 1017.5 - 0.0
29/09:00am 22.6 20.6 15.4 64 4.3 SE 20 39 11 21 1017.5 1017.4 0.0
29/08:30am 22.0 20.1 15.3 65 4.0 SE 19 30 10 16 1017.2 - 0.0
29/08:00am 21.5 20.8 15.3 68 3.7 SE 13 26 7 14 1017.1 - 0.0
29/07:30am 20.9 20.5 15.3 70 3.3 SE 11 17 6 9 1016.9 - 0.0
29/07:00am 20.0 19.5 14.9 72 3.0 SE 11 15 6 8 1016.7 - 0.0
29/06:30am 19.6 18.5 14.4 72 3.0 SE 13 22 7 12 1016.5 - 0.0
29/06:00am 19.3 18.6 14.3 73 2.9 SE 11 15 6 8 1016.3 1016.3 0.0
29/05:30am 18.9 18.8 14.0 73 2.8 SE 7 13 4 7 1016.1 - 0.0
29/05:00am 18.9 18.9 14.2 74 2.7 SSE 7 13 4 7 1015.9 - 0.0
29/04:30am 19.4 19.0 14.2 72 3.0 SE 9 17 5 9 1015.7 - 0.0
29/04:00am 19.8 19.4 14.1 69 3.3 SE 9 15 5 8 1015.8 - 0.0
29/03:30am 20.2 19.4 14.0 67 3.6 SE 11 15 6 8 1015.9 - 0.0
29/03:00am 20.8 19.3 13.1 61 4.4 SE 13 17 7 9 1016.0 1016.0 0.0
29/02:30am 20.8 18.7 12.4 58 4.7 ESE 15 24 8 13 1016.3 - 0.0
29/02:00am 21.4 18.5 12.3 56 5.1 ESE 19 26 10 14 1016.5 - 0.0
29/01:30am 21.4 18.5 12.3 56 5.1 ESE 19 24 10 13 1016.6 - 0.0
29/01:00am 21.4 18.2 11.9 54 5.3 ESE 20 32 11 17 1016.9 - 0.0
29/12:30am 21.7 18.5 11.9 53 5.5 ESE 20 33 11 18 1017.1 - 0.0
29/12:00am 21.7 18.0 11.6 52 5.6 ESE 22 35 12 19 1017.4 1017.4 0.0
 
Date/Time
EST
Temp
°C
App
Temp
°C
Dew
Point
Rel
Hum
%
Delta-T
°C
Wind Press
QNH
hPa
Press
MSL
hPa
Rain
since 9 am
mm
Dir
 
Spd
km/h
Gust
km/h
Spd
kts
Gust
kts
28/11:30pm 21.7 18.1 10.5 49 6.1 ESE 20 33 11 18 1017.4 - 0.0
28/11:00pm 21.5 18.1 11.2 52 5.7 ESE 20 26 11 14 1017.5 - 0.0
28/10:30pm 21.6 18.2 11.3 52 5.7 ESE 20 35 11 19 1017.5 - 0.0
28/10:00pm 21.5 18.5 11.8 54 5.4 ESE 19 30 10 16 1017.4 - 0.0
28/09:30pm 21.4 18.7 13.0 58 4.8 SE 19 32 10 17 1017.3 - 0.0
28/09:00pm 21.9 18.7 13.0 57 5.1 ESE 22 33 12 18 1017.2 - 0.0
28/08:30pm 21.3 18.5 13.3 60 4.6 ESE 20 32 11 17 1017.0 - 0.0
28/08:00pm 21.8 18.6 13.0 57 5.0 ESE 22 32 12 17 1016.8 - 0.0
28/07:30pm 21.7 19.1 13.3 59 4.8 ESE 19 26 10 14 1016.5 - 0.0
28/07:00pm 21.8 18.2 11.8 53 5.6 ESE 22 30 12 16 1016.2 - 0.0
28/06:30pm 21.5 18.8 13.5 60 4.6 ESE 20 26 11 14 1015.9 - 0.0
28/06:00pm 21.9 19.1 14.4 62 4.4 ESE 22 33 12 18 1015.7 1015.6 0.0
28/05:30pm 22.5 19.8 14.5 60 4.7 ESE 22 35 12 19 1015.4 - 0.0
28/05:00pm 23.1 20.0 14.4 58 5.1 ESE 24 35 13 19 1015.2 - 0.0
28/04:30pm 23.4 19.9 14.4 57 5.3 ESE 26 39 14 21 1014.9 - 0.0
28/04:00pm 24.1 20.2 14.3 54 5.8 ESE 28 39 15 21 1015.0 - 0.0
28/03:30pm 24.2 19.5 14.2 53 5.9 ESE 32 46 17 25 1014.8 - 0.0
28/03:00pm 25.1 21.2 14.5 51 6.3 ESE 28 43 15 23 1014.8 1014.9 0.0
28/02:30pm 25.3 20.7 14.6 51 6.4 ESE 32 46 17 25 1015.1 - 0.0
28/02:00pm 25.6 21.6 14.1 49 6.8 ESE 28 41 15 22 1015.3 - 0.0
28/01:30pm 25.5 22.5 14.8 51 6.4 ESE 24 37 13 20 1015.7 - 0.0
28/01:00pm 26.1 22.2 14.3 48 7.0 ESE 28 46 15 25 1015.9 - 0.0
28/12:30pm 25.6 21.5 13.7 47 7.0 ESE 28 41 15 22 1016.2 - 0.0
28/12:00pm 25.0 21.4 14.2 51 6.4 ESE 26 39 14 21 1016.7 1016.7 0.0
28/11:30am 25.3 21.6 13.9 49 6.7 ESE 26 43 14 23 1016.9 - 0.0
28/11:00am 24.8 21.6 14.3 52 6.2 ESE 24 35 13 19 1017.3 - 0.0
28/10:30am 24.7 23.0 14.8 54 5.9 SE 17 28 9 15 1017.4 - 0.0
28/10:00am 24.6 21.6 14.7 54 5.9 ESE 24 37 13 20 1017.5 - 0.0
28/09:30am 23.9 21.6 14.6 56 5.5 ESE 20 32 11 17 1017.7 - 0.0
28/09:00am 23.2 22.1 15.3 61 4.7 SE 15 28 8 15 1017.4 1017.3 0.0
28/08:30am 21.9 21.6 15.5 67 3.8 SSE 11 15 6 8 1017.1 - 0.0
28/08:00am 19.1 21.1 16.1 83 1.8 CALM 0 7 0 4 1017.0 - 0.0
28/07:30am 15.1 15.2 13.9 92 0.7 WNW 6 6 3 3 1016.7 - 0.0
28/07:00am 13.0 13.7 12.3 95 0.4 CALM 0 0 0 0 1016.4 - 0.0
28/06:30am 12.7 12.6 12.1 96 0.3 WNW 4 7 2 4 1016.1 - 0.0
28/06:00am 12.7 12.1 11.8 94 0.5 WNW 6 9 3 5 1015.7 1015.7 0.0
28/05:30am 13.0 12.6 12.3 95 0.4 W 6 7 3 4 1015.4 - 0.0
28/05:00am 13.5 14.4 12.8 95 0.4 CALM 0 2 0 1 1015.2 - 0.0
28/04:30am 13.7 14.3 13.0 96 0.4 SW 2 6 1 3 1015.0 - 0.0
28/04:00am 14.8 14.9 13.9 94 0.5 WSW 6 7 3 4 1015.1 - 0.0
28/03:30am 15.5 15.6 13.9 90 0.9 SW 6 7 3 4 1015.2 - 0.0
28/03:00am 18.2 19.3 14.7 80 2.0 SSW 2 7 1 4 1015.3 1015.3 0.0
28/02:30am 19.3 19.1 13.7 70 3.2 ESE 7 11 4 6 1015.5 - 0.0
28/02:00am 20.0 19.1 13.7 67 3.6 ESE 11 17 6 9 1015.6 - 0.0
28/01:30am 20.7 19.8 13.6 64 4.1 ESE 11 15 6 8 1015.8 - 0.0
28/01:00am 21.2 19.4 13.3 60 4.5 ESE 15 22 8 12 1015.9 - 0.0
28/12:30am 20.9 19.6 14.8 68 3.6 ESE 15 24 8 13 1016.1 - 0.0
28/12:00am 20.5 19.6 14.9 70 3.3 ESE 13 20 7 11 1016.4 1016.4 0.0
 
Date/Time
EST
Temp
°C
App
Temp
°C
Dew
Point
Rel
Hum
%
Delta-T
°C
Wind Press
QNH
hPa
Press
MSL
hPa
Rain
since 9 am
mm
Dir
 
Spd
km/h
Gust
km/h
Spd
kts
Gust
kts
27/11:30pm 20.9 20.4 14.8 68 3.6 ESE 11 15 6 8 1016.7 - 0.0
27/11:00pm 20.8 20.3 14.8 68 3.5 ESE 11 17 6 9 1016.6 - 0.0
27/10:30pm 21.4 20.0 14.6 65 4.0 ESE 15 26 8 14 1016.5 - 0.0
27/10:00pm 21.0 20.6 15.3 70 3.4 SE 11 17 6 9 1016.5 - 0.0
27/09:30pm 21.1 20.3 15.2 69 3.5 SE 13 20 7 11 1016.3 - 0.0
27/09:00pm 20.8 20.1 15.4 71 3.2 ESE 13 19 7 10 1016.1 1016.1 0.0
27/08:30pm 21.2 19.6 14.9 67 3.7 ESE 17 22 9 12 1015.9 - 0.0
27/08:00pm 20.9 20.2 15.3 70 3.3 ESE 13 22 7 12 1015.7 - 0.0
27/07:30pm 20.5 20.3 15.8 74 2.8 ESE 11 15 6 8 1015.4 - 0.0
27/07:00pm 20.8 20.2 15.6 72 3.1 ESE 13 20 7 11 1015.1 - 0.0
27/06:30pm 20.7 19.9 15.1 70 3.3 ESE 13 19 7 10 1014.9 - 0.0
27/06:00pm 21.6 20.7 14.8 65 4.0 ESE 13 22 7 12 1014.5 1014.4 0.0
27/05:30pm 22.8 20.8 14.9 61 4.7 ESE 19 26 10 14 1014.3 - 0.0
27/05:00pm 23.3 21.2 15.1 60 4.9 ESE 20 30 11 16 1014.1 - 0.0
27/04:30pm 24.3 21.8 14.1 53 6.0 ESE 20 32 11 17 1013.8 - 0.0
27/04:00pm 24.3 21.9 13.9 52 6.1 ESE 19 32 10 17 1013.7 - 0.0
27/03:30pm 24.9 21.7 13.0 47 6.9 ESE 22 30 12 16 1013.6 - 0.0
27/03:00pm 25.1 21.8 13.9 49 6.6 ESE 24 32 13 17 1013.7 1013.7 0.0
27/02:30pm 25.7 21.9 13.6 47 7.1 ESE 26 41 14 22 1014.0 - 0.0
27/02:00pm 25.1 21.8 14.1 50 6.5 ESE 24 41 13 22 1014.5 - 0.0
27/01:32pm 26.0 21.7 13.2 45 7.5 ESE 28 46 15 25 1015.0 - 0.0
27/01:30pm 25.5 20.7 12.9 45 7.3 ESE 30 46 16 25 1015.1 - 0.0
27/01:26pm 25.9 21.3 12.4 43 7.8 ESE 28 46 15 25 1015.0 - 0.0
27/01:00pm 25.8 21.6 13.5 46 7.2 ESE 28 39 15 21 1015.3 - 0.0
27/12:30pm 25.8 23.3 14.0 48 7.0 ESE 20 32 11 17 1015.6 - 0.0
27/12:00pm 25.9 24.3 14.9 50 6.6 SE 17 39 9 21 1016.1 1016.1 0.0
27/11:30am 25.1 22.5 14.9 53 6.1 SE 22 30 12 16 1016.3 - 0.0
27/11:00am 25.7 22.8 15.1 52 6.4 ESE 24 32 13 17 1016.5 - 0.0
27/10:30am 25.3 22.4 15.2 53 6.1 ESE 24 39 13 21 1016.9 - 0.0

Other Formats:

Comma delimited format used in spreadsheet applications
http://www.bom.gov.au/fwo/IDQ60801/IDQ60801.95283.axf

JavaScript Object Notation format (JSON) in row-major order
http://www.bom.gov.au/fwo/IDQ60801/IDQ60801.95283.json